Time,TemperatureF,DewpointF,PressureIn,WindDirection,WindDirectionDegrees,WindSpeedMPH,WindSpeedGustMPH,Humidity,HourlyPrecipIn,Conditions,Clouds,dailyrainin,SolarRadiationWatts/m^2,SoftwareType,DateUTC
2013-01-16 00:02:00,33.4,23.3,30.21,NW,315,3.5,3.5,66,0.00,RA,,0.00,0.0,WeatherDisplay:10.37,2013-01-16 06:02:00,
2013-01-16 00:07:00,33.4,23.3,30.21,NW,315,3.8,3.8,66,0.00,RA,,0.00,0.0,WeatherDisplay:10.37,2013-01-16 06:07:00,
2013-01-16 00:12:00,33.4,23.3,30.20,NW,315,3.5,3.5,66,0.00,CLR,,0.00,0.0,WeatherDisplay:10.37,2013-01-16 06:12:00,
2013-01-16 00:17:00,33.4,23.7,30.20,NW,315,3.5,3.5,67,0.00,CLR,,0.00,0.0,WeatherDisplay:10.37,2013-01-16 06:17:00,
2013-01-16 00:23:00,33.3,23.5,30.20,NW,315,3.5,3.5,67,0.00,CLR,,0.00,0.0,WeatherDisplay:10.37,2013-01-16 06:23:00,
2013-01-16 00:28:00,33.3,23.5,30.20,NW,315,3.5,3.5,67,0.00,CLR,,0.00,0.0,WeatherDisplay:10.37,2013-01-16 06:28:00,
2013-01-16 00:33:00,33.3,23.5,30.20,NW,315,3.5,3.5,67,0.00,CLR,,0.00,0.0,WeatherDisplay:10.37,2013-01-16 06:33:00,
2013-01-16 00:38:00,33.1,23.3,30.20,NW,315,3.5,3.5,67,0.00,CLR,,0.00,0.0,WeatherDisplay:10.37,2013-01-16 06:38:00,
2013-01-16 00:44:00,32.9,23.1,30.20,NW,315,3.5,3.5,67,0.00,CLR,,0.00,0.0,WeatherDisplay:10.37,2013-01-16 06:44:00,
2013-01-16 00:49:00,32.9,23.1,30.20,NNW,338,6.2,6.2,67,0.00,CLR,,0.00,0.0,WeatherDisplay:10.37,2013-01-16 06:49:00,
2013-01-16 00:54:00,32.9,23.1,30.22,WNW,292,2.6,2.6,67,0.00,CLR,,0.00,0.0,WeatherDisplay:10.37,2013-01-16 06:54:00,
2013-01-16 00:59:00,32.7,23.0,30.22,NW,315,4.7,4.7,67,0.00,CLR,,0.00,0.0,WeatherDisplay:10.37,2013-01-16 06:59:00,
2013-01-16 01:04:00,32.7,23.0,30.22,NW,315,3.5,3.5,67,0.00,CLR,,0.00,0.0,WeatherDisplay:10.37,2013-01-16 07:04:00,
2013-01-16 01:10:00,32.7,23.0,30.22,NW,315,2.3,2.4,67,0.00,CLR,,0.00,0.0,WeatherDisplay:10.37,2013-01-16 07:10:00,
2013-01-16 01:15:00,32.7,23.0,30.21,NW,315,2.5,2.5,67,0.00,CLR,,0.00,0.0,WeatherDisplay:10.37,2013-01-16 07:15:00,
2013-01-16 01:20:00,32.7,23.3,30.21,NW,315,1.2,1.8,68,0.00,CLR,,0.00,0.0,WeatherDisplay:10.37,2013-01-16 07:20:00,
2013-01-16 01:25:00,32.5,23.1,30.21,NW,315,2.3,2.3,68,0.00,CLR,,0.00,0.0,WeatherDisplay:10.37,2013-01-16 07:25:00,
2013-01-16 01:31:00,32.5,23.1,30.22,NW,315,2.3,2.3,68,0.00,CLR,,0.00,0.0,WeatherDisplay:10.37,2013-01-16 07:31:00,
2013-01-16 01:36:00,32.5,23.1,30.22,WNW,292,2.3,2.3,68,0.00,CLR,,0.00,0.0,WeatherDisplay:10.37,2013-01-16 07:36:00,
2013-01-16 01:41:00,32.5,23.5,30.22,NW,315,3.5,3.5,69,0.00,CLR,,0.00,0.0,WeatherDisplay:10.37,2013-01-16 07:41:00,
2013-01-16 01:47:00,32.5,23.5,30.22,NW,315,2.3,2.3,69,0.00,CLR,,0.00,0.0,WeatherDisplay:10.37,2013-01-16 07:47:00,
2013-01-16 01:52:00,32.5,23.5,30.22,NW,315,2.3,2.3,69,0.00,CLR,,0.00,0.0,WeatherDisplay:10.37,2013-01-16 07:52:00,
2013-01-16 01:57:00,32.5,23.5,30.22,NW,315,2.8,2.8,69,0.00,CLR,,0.00,0.0,WeatherDisplay:10.37,2013-01-16 07:57:00,
2013-01-16 02:02:00,32.5,23.8,30.22,WNW,292,2.3,2.3,70,0.00,CLR,,0.00,0.0,WeatherDisplay:10.37,2013-01-16 08:02:00,
2013-01-16 02:07:00,32.5,23.8,30.22,NW,315,2.3,2.3,70,0.00,CLR,,0.00,0.0,WeatherDisplay:10.37,2013-01-16 08:07:00,
2013-01-16 02:12:00,32.7,24.0,30.24,NW,315,2.3,2.3,70,0.00,CLR,,0.00,0.0,WeatherDisplay:10.37,2013-01-16 08:12:00,
2013-01-16 02:18:00,32.9,24.2,30.24,WNW,292,2.3,2.3,70,0.00,CLR,,0.00,0.0,WeatherDisplay:10.37,2013-01-16 08:18:00,
2013-01-16 02:23:00,32.7,24.0,30.24,NNW,338,2.3,2.3,70,0.00,CLR,,0.00,0.0,WeatherDisplay:10.37,2013-01-16 08:23:00,
2013-01-16 02:28:00,32.7,24.0,30.24,West,270,2.3,2.3,70,0.00,CLR,,0.00,0.0,WeatherDisplay:10.37,2013-01-16 08:28:00,
2013-01-16 02:33:00,32.7,23.7,30.22,NW,315,3.5,3.5,69,0.00,CLR,,0.00,0.0,WeatherDisplay:10.37,2013-01-16 08:33:00,
2013-01-16 02:38:00,32.7,23.7,30.22,NW,315,2.3,2.3,69,0.00,CLR,,0.00,0.0,WeatherDisplay:10.37,2013-01-16 08:38:00,
2013-01-16 02:44:00,32.7,23.7,30.22,NW,315,2.3,2.3,69,0.00,CLR,,0.00,0.0,WeatherDisplay:10.37,2013-01-16 08:44:00,
2013-01-16 02:49:00,32.7,23.7,30.22,WNW,292,2.3,2.3,69,0.00,CLR,,0.00,0.0,WeatherDisplay:10.37,2013-01-16 08:49:00,
2013-01-16 02:54:00,32.7,23.7,30.23,NW,315,1.2,1.3,69,0.00,CLR,,0.00,0.0,WeatherDisplay:10.37,2013-01-16 08:54:00,
2013-01-16 02:59:00,32.7,23.7,30.23,NW,315,2.3,2.3,69,0.00,CLR,,0.00,0.0,WeatherDisplay:10.37,2013-01-16 08:59:00,
2013-01-16 03:05:00,32.5,23.5,30.23,West,270,3.5,3.5,69,0.00,CLR,,0.00,0.0,WeatherDisplay:10.37,2013-01-16 09:05:00,
2013-01-16 03:10:00,32.5,23.5,30.23,West,270,3.5,3.5,69,0.00,CLR,,0.00,0.0,WeatherDisplay:10.37,2013-01-16 09:10:00,
2013-01-16 03:15:00,32.2,23.1,30.23,WNW,292,4.6,4.6,69,0.00,CLR,,0.00,0.0,WeatherDisplay:10.37,2013-01-16 09:15:00,
2013-01-16 03:20:00,32.0,23.0,30.23,West,270,2.6,2.6,69,0.00,CLR,,0.00,0.0,WeatherDisplay:10.37,2013-01-16 09:20:00,
2013-01-16 03:26:00,32.0,23.0,30.23,NW,315,3.5,3.5,69,0.00,CLR,,0.00,0.0,WeatherDisplay:10.37,2013-01-16 09:26:00,
2013-01-16 03:31:00,31.8,22.8,30.23,WNW,292,3.5,3.5,69,0.00,CLR,,0.00,0.0,WeatherDisplay:10.37,2013-01-16 09:31:00,
2013-01-16 03:36:00,31.8,23.1,30.23,NW,315,2.3,2.3,70,0.00,CLR,,0.00,0.0,WeatherDisplay:10.37,2013-01-16 09:36:00,
2013-01-16 03:41:00,31.8,22.8,30.23,West,270,2.3,2.3,69,0.00,CLR,,0.00,0.0,WeatherDisplay:10.37,2013-01-16 09:41:00,
2013-01-16 03:46:00,31.8,23.1,30.23,WNW,292,1.2,1.7,70,0.00,CLR,,0.00,0.0,WeatherDisplay:10.37,2013-01-16 09:46:00,
2013-01-16 03:52:00,31.8,23.1,30.24,WNW,292,2.3,2.3,70,0.00,CLR,,0.00,0.0,WeatherDisplay:10.37,2013-01-16 09:52:00,
2013-01-16 03:57:00,31.8,23.1,30.24,WNW,292,3.5,3.5,70,0.00,CLR,,0.00,0.0,WeatherDisplay:10.37,2013-01-16 09:57:00,
2013-01-16 04:02:00,31.5,22.8,30.24,West,270,5.8,5.8,70,0.00,CLR,,0.00,0.0,WeatherDisplay:10.37,2013-01-16 10:02:00,
2013-01-16 04:07:00,31.5,22.8,30.24,NW,315,4.6,4.6,70,0.00,CLR,,0.00,0.0,WeatherDisplay:10.37,2013-01-16 10:07:00,
2013-01-16 04:13:00,31.3,22.6,30.23,NW,315,2.3,2.6,70,0.00,CLR,,0.00,0.0,WeatherDisplay:10.37,2013-01-16 10:13:00,
2013-01-16 04:18:00,31.5,22.8,30.23,WNW,292,2.3,2.4,70,0.00,CLR,,0.00,0.0,WeatherDisplay:10.37,2013-01-16 10:18:00,
2013-01-16 04:23:00,31.1,22.5,30.23,West,270,3.5,3.5,70,0.00,CLR,,0.00,0.0,WeatherDisplay:10.37,2013-01-16 10:23:00,
2013-01-16 04:28:00,31.1,22.5,30.23,WNW,292,2.8,2.8,70,0.00,CLR,,0.00,0.0,WeatherDisplay:10.37,2013-01-16 10:28:00,
2013-01-16 04:33:00,31.1,22.5,30.24,WNW,292,3.5,3.5,70,0.00,CLR,,0.00,0.0,WeatherDisplay:10.37,2013-01-16 10:33:00,
2013-01-16 04:38:00,31.1,22.5,30.24,West,270,2.5,2.5,70,0.00,CLR,,0.00,0.0,WeatherDisplay:10.37,2013-01-16 10:38:00,
2013-01-16 04:44:00,31.1,22.5,30.24,WNW,292,2.4,2.4,70,0.00,CLR,,0.00,0.0,WeatherDisplay:10.37,2013-01-16 10:44:00,
2013-01-16 04:49:00,31.1,22.5,30.24,NW,315,3.5,3.5,70,0.00,CLR,,0.00,0.0,WeatherDisplay:10.37,2013-01-16 10:49:00,
2013-01-16 04:54:00,30.9,22.3,30.24,NW,315,2.3,2.3,70,0.00,CLR,,0.00,0.0,WeatherDisplay:10.37,2013-01-16 10:54:00,
2013-01-16 04:59:00,31.1,22.5,30.24,NW,315,2.3,2.3,70,0.00,CLR,,0.00,0.0,WeatherDisplay:10.37,2013-01-16 10:59:00,
2013-01-16 05:04:00,31.1,22.5,30.24,NW,315,3.5,3.5,70,0.00,CLR,,0.00,0.0,WeatherDisplay:10.37,2013-01-16 11:04:00,
2013-01-16 05:10:00,30.7,22.1,30.24,WNW,292,2.3,2.3,70,0.00,CLR,,0.00,0.0,WeatherDisplay:10.37,2013-01-16 11:10:00,
2013-01-16 05:15:00,30.7,22.1,30.24,West,270,3.5,3.5,70,0.00,CLR,,0.00,0.0,WeatherDisplay:10.37,2013-01-16 11:15:00,
2013-01-16 05:20:00,30.7,22.1,30.24,NW,315,2.3,2.3,70,0.00,CLR,,0.00,0.0,WeatherDisplay:10.37,2013-01-16 11:20:00,
2013-01-16 05:25:00,30.7,22.1,30.24,NW,315,2.3,2.3,70,0.00,CLR,,0.00,0.0,WeatherDisplay:10.37,2013-01-16 11:25:00,
2013-01-16 05:30:00,30.7,22.1,30.24,WNW,292,2.3,2.3,70,0.00,CLR,,0.00,0.0,WeatherDisplay:10.37,2013-01-16 11:30:00,
2013-01-16 05:35:00,30.6,21.9,30.23,WNW,292,1.2,1.7,70,0.00,CLR,,0.00,0.0,WeatherDisplay:10.37,2013-01-16 11:35:00,
2013-01-16 05:41:00,30.6,21.9,30.23,WNW,292,1.5,1.7,70,0.00,CLR,,0.00,0.0,WeatherDisplay:10.37,2013-01-16 11:41:00,
2013-01-16 05:46:00,30.6,21.9,30.23,WNW,292,1.2,1.7,70,0.00,CLR,,0.00,0.0,WeatherDisplay:10.37,2013-01-16 11:46:00,
2013-01-16 05:51:00,30.7,22.1,30.23,WNW,292,3.5,3.5,70,0.00,CLR,,0.00,0.0,WeatherDisplay:10.37,2013-01-16 11:51:00,
2013-01-16 05:56:00,30.4,21.8,30.23,WNW,292,0.0,0.9,70,0.00,CLR,,0.00,0.0,WeatherDisplay:10.37,2013-01-16 11:56:00,
2013-01-16 06:01:00,30.4,21.8,30.23,WNW,292,1.2,1.2,70,0.00,CLR,,0.00,0.0,WeatherDisplay:10.37,2013-01-16 12:01:00,
2013-01-16 06:06:00,30.4,21.8,30.23,WNW,292,1.6,1.6,70,0.00,CLR,,0.00,0.0,WeatherDisplay:10.37,2013-01-16 12:06:00,
2013-01-16 06:12:00,30.4,21.8,30.25,WNW,292,1.6,1.6,70,0.00,CLR,,0.00,0.0,WeatherDisplay:10.37,2013-01-16 12:12:00,
2013-01-16 06:17:00,30.4,22.1,30.25,West,270,1.6,1.6,71,0.00,CLR,,0.00,0.0,WeatherDisplay:10.37,2013-01-16 12:17:00,
2013-01-16 06:22:00,30.2,21.9,30.25,West,270,1.2,1.2,71,0.00,CLR,,0.00,0.0,WeatherDisplay:10.37,2013-01-16 12:22:00,
2013-01-16 06:28:00,30.4,22.1,30.25,West,270,1.2,1.2,71,0.00,CLR,,0.00,0.0,WeatherDisplay:10.37,2013-01-16 12:28:00,
2013-01-16 06:33:00,30.0,21.8,30.25,West,270,1.2,1.2,71,0.00,CLR,,0.00,0.0,WeatherDisplay:10.37,2013-01-16 12:33:00,
2013-01-16 06:38:00,29.8,21.6,30.25,West,270,1.3,1.3,71,0.00,CLR,,0.00,0.0,WeatherDisplay:10.37,2013-01-16 12:38:00,
2013-01-16 06:43:00,29.8,21.9,30.25,WNW,292,1.3,1.3,72,0.00,CLR,,0.00,0.0,WeatherDisplay:10.37,2013-01-16 12:43:00,
2013-01-16 06:48:00,29.7,21.7,30.25,WNW,292,1.2,1.2,72,0.00,CLR,,0.00,0.0,WeatherDisplay:10.37,2013-01-16 12:48:00,
2013-01-16 06:53:00,29.7,21.7,30.24,West,270,2.3,2.3,72,0.00,CLR,,0.00,0.0,WeatherDisplay:10.37,2013-01-16 12:53:00,
2013-01-16 06:58:00,29.7,21.7,30.24,NW,315,1.2,1.2,72,0.00,CLR,,0.00,0.0,WeatherDisplay:10.37,2013-01-16 12:58:00,
2013-01-16 07:03:00,29.7,21.7,30.24,West,270,2.3,2.3,72,0.00,OVC,,0.00,0.0,WeatherDisplay:10.37,2013-01-16 13:03:00,
2013-01-16 07:09:00,29.7,22.1,30.24,West,270,2.3,2.3,73,0.00,OVC,,0.00,0.0,WeatherDisplay:10.37,2013-01-16 13:09:00,
2013-01-16 07:14:00,29.5,21.9,30.26,WNW,292,1.5,1.5,73,0.00,OVC,,0.00,0.0,WeatherDisplay:10.37,2013-01-16 13:14:00,
2013-01-16 07:19:00,29.3,21.7,30.26,West,270,1.2,1.5,73,0.00,OVC,,0.00,0.0,WeatherDisplay:10.37,2013-01-16 13:19:00,
2013-01-16 07:24:00,29.3,21.7,30.26,WSW,248,1.4,1.4,73,0.00,OVC,,0.00,0.0,WeatherDisplay:10.37,2013-01-16 13:24:00,
2013-01-16 07:29:00,29.3,21.7,30.26,West,270,2.3,2.3,73,0.00,OVC,,0.00,0.0,WeatherDisplay:10.37,2013-01-16 13:29:00,
2013-01-16 07:35:00,29.3,21.7,30.26,WSW,248,2.0,2.0,73,0.00,OVC,,0.00,0.0,WeatherDisplay:10.37,2013-01-16 13:35:00,
2013-01-16 07:40:00,29.3,22.0,30.26,WSW,248,0.0,0.7,74,0.00,OVC,,0.00,0.0,WeatherDisplay:10.37,2013-01-16 13:40:00,
2013-01-16 07:45:00,29.3,22.0,30.26,WSW,248,1.2,1.2,74,0.00,OVC,,0.00,0.0,WeatherDisplay:10.37,2013-01-16 13:45:00,
2013-01-16 07:50:00,28.9,21.7,30.27,WSW,248,1.2,1.2,74,0.00,OVC,,0.00,0.0,WeatherDisplay:10.37,2013-01-16 13:50:00,
2013-01-16 07:55:00,29.3,22.0,30.27,WSW,248,1.2,1.2,74,0.00,OVC,,0.00,0.0,WeatherDisplay:10.37,2013-01-16 13:55:00,
2013-01-16 08:00:00,29.3,22.0,30.27,WSW,248,1.2,1.2,74,0.00,OVC,,0.00,10.0,WeatherDisplay:10.37,2013-01-16 14:00:00,
2013-01-16 08:06:00,29.1,21.9,30.27,WSW,248,0.0,0.0,74,0.00,OVC,,0.00,10.0,WeatherDisplay:10.37,2013-01-16 14:06:00,
2013-01-16 08:11:00,29.3,21.7,30.29,WSW,248,0.0,0.0,73,0.00,OVC,,0.00,20.0,WeatherDisplay:10.37,2013-01-16 14:11:00,
2013-01-16 08:16:00,29.3,21.7,30.29,WSW,248,0.0,0.0,73,0.00,OVC,,0.00,30.0,WeatherDisplay:10.37,2013-01-16 14:16:00,
2013-01-16 08:21:00,29.7,22.1,30.29,WSW,248,0.0,0.0,73,0.00,OVC,,0.00,40.0,WeatherDisplay:10.37,2013-01-16 14:21:00,
2013-01-16 08:26:00,29.7,21.7,30.29,WSW,248,0.0,0.0,72,0.00,OVC,,0.00,40.0,WeatherDisplay:10.37,2013-01-16 14:26:00,
2013-01-16 08:31:00,29.7,21.7,30.29,WSW,248,0.0,0.0,72,0.00,OVC,,0.00,50.0,WeatherDisplay:10.37,2013-01-16 14:31:00,
2013-01-16 08:36:00,29.7,21.4,30.29,West,270,4.6,4.6,71,0.00,OVC,,0.00,60.0,WeatherDisplay:10.37,2013-01-16 14:36:00,
2013-01-16 08:42:00,30.0,21.8,30.29,WNW,292,3.5,3.5,71,0.00,OVC,,0.00,70.0,WeatherDisplay:10.37,2013-01-16 14:42:00,
2013-01-16 08:47:00,30.4,21.8,30.29,WNW,292,3.5,3.5,70,0.00,OVC,,0.00,80.0,WeatherDisplay:10.37,2013-01-16 14:47:00,
2013-01-16 08:52:00,30.4,21.8,30.31,WNW,292,3.5,3.5,70,0.00,OVC,,0.00,90.0,WeatherDisplay:10.37,2013-01-16 14:52:00,
2013-01-16 08:57:00,30.6,21.9,30.31,WNW,292,3.5,3.5,70,0.00,OVC,,0.00,100.0,WeatherDisplay:10.37,2013-01-16 14:57:00,
2013-01-16 09:02:00,31.1,22.1,30.31,WNW,292,0.0,0.0,69,0.00,OVC,,0.00,120.0,WeatherDisplay:10.37,2013-01-16 15:02:00,
2013-01-16 09:08:00,31.1,22.1,30.31,WNW,292,0.0,0.0,69,0.00,OVC,,0.00,120.0,WeatherDisplay:10.37,2013-01-16 15:08:00,
2013-01-16 09:13:00,31.5,21.8,30.30,WNW,292,0.0,0.0,67,0.00,OVC,,0.00,140.0,WeatherDisplay:10.37,2013-01-16 15:13:00,
2013-01-16 09:18:00,31.8,22.1,30.30,WNW,292,0.0,0.0,67,0.00,OVC,,0.00,140.0,WeatherDisplay:10.37,2013-01-16 15:18:00,
2013-01-16 09:23:00,32.0,21.6,30.30,WNW,292,0.0,0.0,65,0.00,OVC,,0.00,160.0,WeatherDisplay:10.37,2013-01-16 15:23:00,
2013-01-16 09:29:00,32.5,22.1,30.30,WNW,292,0.0,0.0,65,0.00,OVC,,0.00,170.0,WeatherDisplay:10.37,2013-01-16 15:29:00,
2013-01-16 09:34:00,32.7,21.9,30.30,WNW,292,0.0,0.0,64,0.00,OVC,,0.00,170.0,WeatherDisplay:10.37,2013-01-16 15:34:00,
2013-01-16 09:39:00,33.3,22.0,30.30,WNW,292,0.0,0.0,63,0.00,OVC,,0.00,190.0,WeatherDisplay:10.37,2013-01-16 15:39:00,
2013-01-16 09:44:00,33.4,22.2,30.30,WSW,248,3.5,3.5,63,0.00,OVC,,0.00,190.0,WeatherDisplay:10.37,2013-01-16 15:44:00,
2013-01-16 09:49:00,33.6,21.6,30.30,West,270,5.8,5.8,61,0.00,OVC,,0.00,200.0,WeatherDisplay:10.37,2013-01-16 15:49:00,
2013-01-16 09:54:00,34.2,21.7,30.30,NW,315,4.6,4.6,60,0.00,OVC,,0.00,220.0,WeatherDisplay:10.37,2013-01-16 15:54:00,
2013-01-16 10:00:00,34.3,21.9,30.30,NW,315,3.5,3.5,60,0.00,OVC,,0.00,220.0,WeatherDisplay:10.37,2013-01-16 16:00:00,
2013-01-16 10:05:00,34.9,22.4,30.30,West,270,2.3,2.3,60,0.00,OVC,,0.00,240.0,WeatherDisplay:10.37,2013-01-16 16:05:00,
2013-01-16 10:10:00,35.1,22.2,30.30,NW,315,2.3,2.3,59,0.00,OVC,,0.00,270.0,WeatherDisplay:10.37,2013-01-16 16:10:00,
2013-01-16 10:15:00,35.4,22.1,30.29,WNW,292,2.6,2.6,58,0.00,OVC,,0.00,330.0,WeatherDisplay:10.37,2013-01-16 16:15:00,
2013-01-16 10:20:00,35.6,21.9,30.29,NW,315,2.3,2.3,57,0.00,OVC,,0.00,390.0,WeatherDisplay:10.37,2013-01-16 16:20:00,
2013-01-16 10:25:00,36.1,22.4,30.29,WNW,292,2.3,2.3,57,0.00,OVC,,0.00,450.0,WeatherDisplay:10.37,2013-01-16 16:25:00,
2013-01-16 10:30:00,36.5,21.8,30.27,NW,315,2.3,2.6,55,0.00,OVC,,0.00,500.0,WeatherDisplay:10.37,2013-01-16 16:30:00,
2013-01-16 10:36:00,36.9,22.2,30.27,NW,315,3.5,3.5,55,0.00,OVC,,0.00,570.0,WeatherDisplay:10.37,2013-01-16 16:36:00,
2013-01-16 10:41:00,37.0,21.5,30.27,NW,315,3.5,3.5,53,0.00,OVC,,0.00,630.0,WeatherDisplay:10.37,2013-01-16 16:41:00,
2013-01-16 10:46:00,37.4,21.8,30.27,NW,315,3.5,3.5,53,0.00,OVC,,0.00,690.0,WeatherDisplay:10.37,2013-01-16 16:46:00,
2013-01-16 10:51:00,37.8,22.1,30.26,NW,315,0.0,0.0,53,0.00,OVC,,0.00,760.0,WeatherDisplay:10.37,2013-01-16 16:51:00,
2013-01-16 10:57:00,38.3,22.2,30.26,NW,315,0.0,0.0,52,0.00,OVC,,0.00,780.0,WeatherDisplay:10.37,2013-01-16 16:57:00,
2013-01-16 11:02:00,38.5,21.9,30.26,NW,315,0.0,0.0,51,0.00,OVC,,0.00,840.0,WeatherDisplay:10.37,2013-01-16 17:02:00,
2013-01-16 11:07:00,39.0,22.4,30.26,NW,315,0.0,0.0,51,0.00,OVC,,0.00,460.0,WeatherDisplay:10.37,2013-01-16 17:07:00,
2013-01-16 11:12:00,39.2,22.6,30.25,NW,315,0.0,0.0,51,0.00,OVC,,0.00,830.0,WeatherDisplay:10.37,2013-01-16 17:12:00,
2013-01-16 11:17:00,39.7,22.6,30.25,NW,315,0.0,0.0,50,0.00,OVC,,0.00,840.0,WeatherDisplay:10.37,2013-01-16 17:17:00,
2013-01-16 11:22:00,40.1,22.4,30.25,NW,315,0.0,0.0,49,0.00,OVC,,0.00,830.0,WeatherDisplay:10.37,2013-01-16 17:22:00,
2013-01-16 11:27:00,40.1,22.4,30.25,West,270,4.6,4.6,49,0.00,OVC,,0.00,830.0,WeatherDisplay:10.37,2013-01-16 17:27:00,
2013-01-16 11:33:00,40.6,22.5,30.25,West,270,8.1,8.1,48,0.00,OVC,,0.00,780.0,WeatherDisplay:10.37,2013-01-16 17:33:00,
2013-01-16 11:38:00,40.6,22.5,30.25,West,270,8.1,8.1,48,0.00,OVC,,0.00,780.0,WeatherDisplay:10.37,2013-01-16 17:38:00,
2013-01-16 11:43:00,41.2,23.0,30.25,West,270,9.2,9.2,48,0.00,OVC,,0.00,780.0,WeatherDisplay:10.37,2013-01-16 17:43:00,
2013-01-16 11:48:00,41.4,22.6,30.25,WSW,248,9.2,9.2,47,0.00,OVC,,0.00,810.0,WeatherDisplay:10.37,2013-01-16 17:48:00,
2013-01-16 11:53:00,41.9,23.6,30.24,WSW,248,9.2,9.2,48,0.00,OVC,,0.00,810.0,WeatherDisplay:10.37,2013-01-16 17:53:00,
2013-01-16 11:58:00,41.9,23.1,30.24,West,270,6.9,6.9,47,0.00,OVC,,0.00,800.0,WeatherDisplay:10.37,2013-01-16 17:58:00,
2013-01-16 12:04:00,42.1,23.3,30.24,West,270,6.9,6.9,47,0.00,OVC,,0.00,800.0,WeatherDisplay:10.37,2013-01-16 18:04:00,
2013-01-16 12:09:00,42.1,23.3,30.24,West,270,7.4,7.4,47,0.00,OVC,,0.00,800.0,WeatherDisplay:10.37,2013-01-16 18:09:00,
2013-01-16 12:14:00,42.8,23.4,30.22,West,270,7.4,7.4,46,0.00,OVC,,0.00,800.0,WeatherDisplay:10.37,2013-01-16 18:14:00,
2013-01-16 12:20:00,42.8,23.4,30.22,NE,45,6.9,6.9,46,0.00,OVC,,0.00,800.0,WeatherDisplay:10.37,2013-01-16 18:20:00,
2013-01-16 12:25:00,43.0,24.1,30.22,NW,315,4.6,4.6,47,0.00,OVC,,0.00,800.0,WeatherDisplay:10.37,2013-01-16 18:25:00,
2013-01-16 12:30:00,43.2,23.8,30.22,NW,315,3.5,3.5,46,0.00,OVC,,0.00,790.0,WeatherDisplay:10.37,2013-01-16 18:30:00,
2013-01-16 12:35:00,43.3,23.9,30.21,NW,315,4.6,4.6,46,0.00,OVC,,0.00,800.0,WeatherDisplay:10.37,2013-01-16 18:35:00,
2013-01-16 12:40:00,43.7,24.2,30.21,NW,315,8.1,8.1,46,0.00,OVC,,0.00,810.0,WeatherDisplay:10.37,2013-01-16 18:40:00,
2013-01-16 12:46:00,44.1,24.6,30.21,NW,315,8.1,8.1,46,0.00,OVC,,0.00,790.0,WeatherDisplay:10.37,2013-01-16 18:46:00,
2013-01-16 12:51:00,44.2,24.2,30.20,NW,315,8.1,8.1,45,0.00,OVC,,0.00,780.0,WeatherDisplay:10.37,2013-01-16 18:51:00,
2013-01-16 12:56:00,44.4,24.9,30.20,NNE,22,2.3,2.8,46,0.00,OVC,,0.00,770.0,WeatherDisplay:10.37,2013-01-16 18:56:00,
2013-01-16 13:01:00,44.6,24.5,30.20,NW,315,8.1,8.1,45,0.00,OVC,,0.00,770.0,WeatherDisplay:10.37,2013-01-16 19:01:00,
2013-01-16 13:06:00,45.0,24.3,30.20,West,270,6.9,6.9,44,0.00,OVC,,0.00,780.0,WeatherDisplay:10.37,2013-01-16 19:06:00,
2013-01-16 13:11:00,45.0,24.3,30.19,NNW,338,2.3,4.0,44,0.00,OVC,,0.00,780.0,WeatherDisplay:10.37,2013-01-16 19:11:00,
2013-01-16 13:16:00,45.7,25.0,30.19,NW,315,4.6,4.6,44,0.00,OVC,,0.00,790.0,WeatherDisplay:10.37,2013-01-16 19:16:00,
2013-01-16 13:21:00,45.5,24.8,30.19,WSW,248,5.2,5.2,44,0.00,OVC,,0.00,790.0,WeatherDisplay:10.37,2013-01-16 19:21:00,
2013-01-16 13:26:00,45.9,25.2,30.19,West,270,5.8,5.8,44,0.00,OVC,,0.00,780.0,WeatherDisplay:10.37,2013-01-16 19:26:00,
2013-01-16 13:32:00,46.2,24.9,30.18,NW,315,3.5,3.6,43,0.00,CLR,,0.00,780.0,WeatherDisplay:10.37,2013-01-16 19:32:00,
2013-01-16 13:37:00,46.2,24.9,30.18,NW,315,6.9,6.9,43,0.00,CLR,,0.00,790.0,WeatherDisplay:10.37,2013-01-16 19:37:00,
2013-01-16 13:42:00,46.4,24.5,30.18,NW,315,8.1,8.1,42,0.00,CLR,,0.00,790.0,WeatherDisplay:10.37,2013-01-16 19:42:00,
2013-01-16 13:47:00,46.4,24.5,30.18,West,270,6.9,6.9,42,0.00,CLR,,0.00,780.0,WeatherDisplay:10.37,2013-01-16 19:47:00,
2013-01-16 13:52:00,46.8,24.3,30.17,WSW,248,3.5,4.4,41,0.00,CLR,,0.00,750.0,WeatherDisplay:10.37,2013-01-16 19:52:00,
2013-01-16 13:58:00,47.1,24.6,30.17,NW,315,6.9,6.9,41,0.00,CLR,,0.00,750.0,WeatherDisplay:10.37,2013-01-16 19:58:00,
2013-01-16 14:03:00,46.9,24.4,30.17,NW,315,6.9,6.9,41,0.00,CLR,,0.00,750.0,WeatherDisplay:10.37,2013-01-16 20:03:00,
2013-01-16 14:08:00,47.1,24.6,30.17,WNW,292,2.3,4.9,41,0.00,CLR,,0.00,750.0,WeatherDisplay:10.37,2013-01-16 20:08:00,
2013-01-16 14:13:00,47.3,24.8,30.17,NW,315,6.9,6.9,41,0.00,CLR,,0.00,370.0,WeatherDisplay:10.37,2013-01-16 20:13:00,
2013-01-16 14:19:00,47.7,25.1,30.17,West,270,9.2,9.2,41,0.00,CLR,,0.00,700.0,WeatherDisplay:10.37,2013-01-16 20:19:00,
2013-01-16 14:24:00,47.7,24.5,30.17,NW,315,4.8,4.8,40,0.00,CLR,,0.00,760.0,WeatherDisplay:10.37,2013-01-16 20:24:00,
2013-01-16 14:29:00,47.8,24.7,30.17,West,270,5.8,5.8,40,0.00,CLR,,0.00,770.0,WeatherDisplay:10.37,2013-01-16 20:29:00,
2013-01-16 14:34:00,48.4,25.1,30.16,West,270,4.6,4.6,40,0.00,CLR,,0.00,770.0,WeatherDisplay:10.37,2013-01-16 20:34:00,
2013-01-16 14:40:00,48.7,24.9,30.16,West,270,4.6,4.6,39,0.00,CLR,,0.00,780.0,WeatherDisplay:10.37,2013-01-16 20:40:00,
2013-01-16 14:45:00,48.4,24.5,30.16,West,270,4.6,4.6,39,0.00,CLR,,0.00,750.0,WeatherDisplay:10.37,2013-01-16 20:45:00,
2013-01-16 14:50:00,48.7,24.9,30.16,NW,315,1.2,4.0,39,0.00,CLR,,0.00,750.0,WeatherDisplay:10.37,2013-01-16 20:50:00,
2013-01-16 14:55:00,49.1,24.6,30.16,NW,315,1.2,4.0,38,0.00,CLR,,0.00,760.0,WeatherDisplay:10.37,2013-01-16 20:55:00,
2013-01-16 15:00:00,49.1,24.6,30.16,NW,315,4.6,4.6,38,0.00,CLR,,0.00,760.0,WeatherDisplay:10.37,2013-01-16 21:00:00,
2013-01-16 15:05:00,49.1,23.9,30.16,NW,315,4.6,4.6,37,0.00,CLR,,0.00,730.0,WeatherDisplay:10.37,2013-01-16 21:05:00,
2013-01-16 15:11:00,49.1,23.9,30.15,NW,315,4.6,4.6,37,0.00,CLR,,0.00,700.0,WeatherDisplay:10.37,2013-01-16 21:11:00,
2013-01-16 15:16:00,49.8,24.6,30.15,NW,315,0.0,0.0,37,0.00,CLR,,0.00,660.0,WeatherDisplay:10.37,2013-01-16 21:16:00,
2013-01-16 15:21:00,51.4,25.3,30.15,NW,315,0.0,0.0,36,0.00,CLR,,0.00,630.0,WeatherDisplay:10.37,2013-01-16 21:21:00,
2013-01-16 15:26:00,52.2,25.3,30.15,NW,315,0.0,0.0,35,0.00,CLR,,0.00,610.0,WeatherDisplay:10.37,2013-01-16 21:26:00,
2013-01-16 15:32:00,52.3,24.8,30.16,NW,315,0.0,0.0,34,0.00,CLR,,0.00,600.0,WeatherDisplay:10.37,2013-01-16 21:32:00,
2013-01-16 15:37:00,53.2,24.1,30.16,NW,315,0.0,0.0,32,0.00,CLR,,0.00,560.0,WeatherDisplay:10.37,2013-01-16 21:37:00,
2013-01-16 15:42:00,53.6,24.4,30.16,NW,315,0.0,0.0,32,0.00,CLR,,0.00,530.0,WeatherDisplay:10.37,2013-01-16 21:42:00,
2013-01-16 15:47:00,54.0,24.7,30.16,NW,315,0.0,0.0,32,0.00,CLR,,0.00,490.0,WeatherDisplay:10.37,2013-01-16 21:47:00,
2013-01-16 15:52:00,54.9,24.8,30.15,NW,315,0.0,0.0,31,0.00,CLR,,0.00,400.0,WeatherDisplay:10.37,2013-01-16 21:52:00,
2013-01-16 15:57:00,55.2,25.1,30.15,NW,315,0.0,0.0,31,0.00,CLR,,0.00,400.0,WeatherDisplay:10.37,2013-01-16 21:57:00,
2013-01-16 16:02:00,54.3,24.3,30.15,NW,315,0.0,0.0,31,0.00,CLR,,0.00,320.0,WeatherDisplay:10.37,2013-01-16 22:02:00,
2013-01-16 16:08:00,53.2,23.3,30.15,NW,315,0.0,0.0,31,0.00,FEW,,0.00,320.0,WeatherDisplay:10.37,2013-01-16 22:08:00,
2013-01-16 16:13:00,52.7,24.4,30.16,NW,315,0.0,0.0,33,0.00,BKN,,0.00,220.0,WeatherDisplay:10.37,2013-01-16 22:13:00,
2013-01-16 16:18:00,52.5,24.9,30.16,NW,315,0.0,0.0,34,0.00,BKN,,0.00,220.0,WeatherDisplay:10.37,2013-01-16 22:18:00,
2013-01-16 16:23:00,52.2,23.9,30.16,NW,315,0.0,0.0,33,0.00,BKN,,0.00,180.0,WeatherDisplay:10.37,2013-01-16 22:23:00,
2013-01-16 16:28:00,51.6,23.4,30.16,NW,315,0.0,0.0,33,0.00,BKN,,0.00,180.0,WeatherDisplay:10.37,2013-01-16 22:28:00,
2013-01-16 16:33:00,51.4,23.3,30.17,NW,315,0.0,0.0,33,0.00,OVC,,0.00,140.0,WeatherDisplay:10.37,2013-01-16 22:33:00,
2013-01-16 16:38:00,51.3,23.1,30.17,NW,315,0.0,0.0,33,0.00,OVC,,0.00,130.0,WeatherDisplay:10.37,2013-01-16 22:38:00,
2013-01-16 16:43:00,51.3,23.1,30.17,NW,315,0.0,0.0,33,0.00,OVC,,0.00,110.0,WeatherDisplay:10.37,2013-01-16 22:43:00,
2013-01-16 16:49:00,50.9,23.5,30.17,NW,315,0.0,0.0,34,0.00,OVC,,0.00,100.0,WeatherDisplay:10.37,2013-01-16 22:49:00,
2013-01-16 16:54:00,51.1,22.9,30.17,NW,315,0.0,0.0,33,0.00,OVC,,0.00,80.0,WeatherDisplay:10.37,2013-01-16 22:54:00,
2013-01-16 16:59:00,51.6,22.7,30.17,NW,315,0.0,0.0,32,0.00,OVC,,0.00,70.0,WeatherDisplay:10.37,2013-01-16 22:59:00,
2013-01-16 17:04:00,51.4,22.5,30.17,NW,315,0.0,0.0,32,0.00,OVC,,0.00,60.0,WeatherDisplay:10.37,2013-01-16 23:04:00,
2013-01-16 17:09:00,50.9,22.1,30.17,NW,315,0.0,0.0,32,0.00,OVC,,0.00,50.0,WeatherDisplay:10.37,2013-01-16 23:09:00,
2013-01-16 17:15:00,50.5,21.7,30.17,NW,315,0.0,0.0,32,0.00,OVC,,0.00,40.0,WeatherDisplay:10.37,2013-01-16 23:15:00,
2013-01-16 17:20:00,50.2,21.4,30.17,NW,315,0.0,0.0,32,0.00,OVC,,0.00,30.0,WeatherDisplay:10.37,2013-01-16 23:20:00,
2013-01-16 17:25:00,49.8,21.1,30.17,NW,315,0.0,0.0,32,0.00,OVC,,0.00,20.0,WeatherDisplay:10.37,2013-01-16 23:25:00,
2013-01-16 17:30:00,49.5,21.5,30.17,NW,315,0.0,0.0,33,0.00,OVC,,0.00,10.0,WeatherDisplay:10.37,2013-01-16 23:30:00,
2013-01-16 17:35:00,49.5,21.5,30.17,NW,315,0.0,0.0,33,0.00,OVC,,0.00,0.0,WeatherDisplay:10.37,2013-01-16 23:35:00,
2013-01-16 17:40:00,49.1,21.9,30.17,NW,315,0.0,0.0,34,0.00,OVC,,0.00,0.0,WeatherDisplay:10.37,2013-01-16 23:40:00,
2013-01-16 17:46:00,48.9,21.7,30.17,NW,315,0.0,0.0,34,0.00,OVC,,0.00,0.0,WeatherDisplay:10.37,2013-01-16 23:46:00,
2013-01-16 17:51:00,48.6,22.1,30.18,NW,315,0.0,0.0,35,0.00,OVC,,0.00,0.0,WeatherDisplay:10.37,2013-01-16 23:51:00,
2013-01-16 17:56:00,48.2,21.8,30.18,NW,315,0.0,0.0,35,0.00,OVC,,0.00,0.0,WeatherDisplay:10.37,2013-01-16 23:56:00,
2013-01-16 18:01:00,47.8,22.8,30.18,NW,315,0.0,0.0,37,0.00,CLR,,0.00,0.0,WeatherDisplay:10.37,2013-01-17 00:01:00,
2013-01-16 18:06:00,47.3,22.9,30.18,NW,315,0.0,0.0,38,0.00,CLR,,0.00,0.0,WeatherDisplay:10.37,2013-01-17 00:06:00,
2013-01-16 18:11:00,47.1,23.4,30.18,NW,315,0.0,0.0,39,0.00,CLR,,0.00,0.0,WeatherDisplay:10.37,2013-01-17 00:11:00,
2013-01-16 18:16:00,46.6,22.9,30.18,NW,315,0.0,0.0,39,0.00,CLR,,0.00,0.0,WeatherDisplay:10.37,2013-01-17 00:16:00,
2013-01-16 18:21:00,46.6,23.5,30.18,NW,315,0.0,0.0,40,0.00,CLR,,0.00,0.0,WeatherDisplay:10.37,2013-01-17 00:21:00,
2013-01-16 18:27:00,46.2,23.8,30.18,NW,315,0.0,0.0,41,0.00,CLR,,0.00,0.0,WeatherDisplay:10.37,2013-01-17 00:27:00,
2013-01-16 18:32:00,45.9,23.5,30.18,NW,315,0.0,0.0,41,0.00,CLR,,0.00,0.0,WeatherDisplay:10.37,2013-01-17 00:32:00,
2013-01-16 18:37:00,45.7,23.9,30.18,NW,315,0.0,0.0,42,0.00,CLR,,0.00,0.0,WeatherDisplay:10.37,2013-01-17 00:37:00,
2013-01-16 18:42:00,45.5,24.3,30.18,NW,315,0.0,0.0,43,0.00,CLR,,0.00,0.0,WeatherDisplay:10.37,2013-01-17 00:42:00,
2013-01-16 18:47:00,45.0,23.8,30.18,NW,315,0.0,0.0,43,0.00,CLR,,0.00,0.0,WeatherDisplay:10.37,2013-01-17 00:47:00,
2013-01-16 18:52:00,44.8,24.7,30.19,NW,315,0.0,0.0,45,0.00,CLR,,0.00,0.0,WeatherDisplay:10.37,2013-01-17 00:52:00,
2013-01-16 18:57:00,44.8,24.7,30.19,NW,315,0.0,0.0,45,0.00,CLR,,0.00,0.0,WeatherDisplay:10.37,2013-01-17 00:57:00,
2013-01-16 19:02:00,44.2,24.7,30.19,NW,315,0.0,0.0,46,0.00,CLR,,0.00,0.0,WeatherDisplay:10.37,2013-01-17 01:02:00,
2013-01-16 19:08:00,44.2,24.7,30.19,NW,315,0.0,0.0,46,0.00,CLR,,0.00,0.0,WeatherDisplay:10.37,2013-01-17 01:08:00,
2013-01-16 19:13:00,43.9,24.4,30.20,NW,315,0.0,0.0,46,0.00,CLR,,0.00,0.0,WeatherDisplay:10.37,2013-01-17 01:13:00,
2013-01-16 19:18:00,43.5,24.6,30.20,NW,315,0.0,0.0,47,0.00,CLR,,0.00,0.0,WeatherDisplay:10.37,2013-01-17 01:18:00,
2013-01-16 19:23:00,43.3,24.9,30.20,NW,315,0.0,0.0,48,0.00,CLR,,0.00,0.0,WeatherDisplay:10.37,2013-01-17 01:23:00,
2013-01-16 19:28:00,43.3,24.9,30.20,NW,315,0.0,0.0,48,0.00,CLR,,0.00,0.0,WeatherDisplay:10.37,2013-01-17 01:28:00,
2013-01-16 19:34:00,43.0,25.1,30.21,NW,315,0.0,0.0,49,0.00,CLR,,0.00,0.0,WeatherDisplay:10.37,2013-01-17 01:34:00,
2013-01-16 19:39:00,42.8,24.9,30.21,NW,315,0.0,0.0,49,0.00,CLR,,0.00,0.0,WeatherDisplay:10.37,2013-01-17 01:39:00,
2013-01-16 19:44:00,42.6,25.3,30.21,NW,315,0.0,0.0,50,0.00,CLR,,0.00,0.0,WeatherDisplay:10.37,2013-01-17 01:44:00,
2013-01-16 19:49:00,42.3,24.9,30.21,NW,315,0.0,0.0,50,0.00,CLR,,0.00,0.0,WeatherDisplay:10.37,2013-01-17 01:49:00,
2013-01-16 19:54:00,42.1,25.2,30.21,NW,315,0.0,0.0,51,0.00,CLR,,0.00,0.0,WeatherDisplay:10.37,2013-01-17 01:54:00,
2013-01-16 19:59:00,41.7,24.9,30.21,NW,315,0.0,0.0,51,0.00,CLR,,0.00,0.0,WeatherDisplay:10.37,2013-01-17 01:59:00,
2013-01-16 20:04:00,41.5,25.2,30.21,NW,315,0.0,0.0,52,0.00,CLR,,0.00,0.0,WeatherDisplay:10.37,2013-01-17 02:04:00,
2013-01-16 20:09:00,41.5,25.2,30.21,NW,315,0.0,0.0,52,0.00,CLR,,0.00,0.0,WeatherDisplay:10.37,2013-01-17 02:09:00,
2013-01-16 20:15:00,41.2,24.9,30.21,NW,315,0.0,0.0,52,0.00,CLR,,0.00,0.0,WeatherDisplay:10.37,2013-01-17 02:15:00,
2013-01-16 20:20:00,41.2,25.3,30.21,NW,315,0.0,0.0,53,0.00,CLR,,0.00,0.0,WeatherDisplay:10.37,2013-01-17 02:20:00,
2013-01-16 20:25:00,40.6,24.8,30.21,NW,315,0.0,0.0,53,0.00,CLR,,0.00,0.0,WeatherDisplay:10.37,2013-01-17 02:25:00,
2013-01-16 20:30:00,40.6,24.8,30.21,NW,315,0.0,0.0,53,0.00,CLR,,0.00,0.0,WeatherDisplay:10.37,2013-01-17 02:30:00,
2013-01-16 20:35:00,40.5,25.1,30.21,NW,315,0.0,0.0,54,0.00,CLR,,0.00,0.0,WeatherDisplay:10.37,2013-01-17 02:35:00,
2013-01-16 20:40:00,40.5,25.1,30.21,NW,315,0.0,0.0,54,0.00,CLR,,0.00,0.0,WeatherDisplay:10.37,2013-01-17 02:40:00,
2013-01-16 20:46:00,40.3,24.9,30.21,NW,315,0.0,0.0,54,0.00,CLR,,0.00,0.0,WeatherDisplay:10.37,2013-01-17 02:46:00,
2013-01-16 20:51:00,39.9,24.6,30.22,NW,315,0.0,0.0,54,0.00,CLR,,0.00,0.0,WeatherDisplay:10.37,2013-01-17 02:51:00,
2013-01-16 20:56:00,40.1,25.2,30.22,NW,315,0.0,0.0,55,0.00,CLR,,0.00,0.0,WeatherDisplay:10.37,2013-01-17 02:56:00,
2013-01-16 21:01:00,39.9,25.0,30.22,NW,315,0.0,0.0,55,0.00,CLR,,0.00,0.0,WeatherDisplay:10.37,2013-01-17 03:01:00,
2013-01-16 21:06:00,39.7,25.3,30.22,NW,315,0.0,0.0,56,0.00,CLR,,0.00,0.0,WeatherDisplay:10.37,2013-01-17 03:06:00,
2013-01-16 21:11:00,39.7,25.3,30.22,NW,315,0.0,0.0,56,0.00,CLR,,0.00,0.0,WeatherDisplay:10.37,2013-01-17 03:11:00,
2013-01-16 21:17:00,39.9,25.5,30.22,NW,315,0.0,0.0,56,0.00,CLR,,0.00,0.0,WeatherDisplay:10.37,2013-01-17 03:17:00,
2013-01-16 21:22:00,39.9,25.9,30.22,NW,315,0.0,0.0,57,0.00,CLR,,0.00,0.0,WeatherDisplay:10.37,2013-01-17 03:22:00,
2013-01-16 21:27:00,39.9,25.5,30.22,NW,315,0.0,0.0,56,0.00,CLR,,0.00,0.0,WeatherDisplay:10.37,2013-01-17 03:27:00,
2013-01-16 21:32:00,40.1,25.6,30.22,NW,315,0.0,0.0,56,0.00,CLR,,0.00,0.0,WeatherDisplay:10.37,2013-01-17 03:32:00,
2013-01-16 21:38:00,39.9,25.5,30.22,NW,315,0.0,0.0,56,0.00,CLR,,0.00,0.0,WeatherDisplay:10.37,2013-01-17 03:38:00,
2013-01-16 21:43:00,39.9,25.5,30.22,NW,315,0.0,0.0,56,0.00,CLR,,0.00,0.0,WeatherDisplay:10.37,2013-01-17 03:43:00,
2013-01-16 21:48:00,40.1,26.1,30.22,NW,315,0.0,0.0,57,0.00,CLR,,0.00,0.0,WeatherDisplay:10.37,2013-01-17 03:48:00,
2013-01-16 21:53:00,39.9,25.5,30.22,NW,315,0.0,0.0,56,0.00,CLR,,0.00,0.0,WeatherDisplay:10.37,2013-01-17 03:53:00,
2013-01-16 21:58:00,40.1,26.1,30.22,NW,315,0.0,0.0,57,0.00,CLR,,0.00,0.0,WeatherDisplay:10.37,2013-01-17 03:58:00,
2013-01-16 22:03:00,40.1,26.1,30.22,NW,315,0.0,0.0,57,0.00,CLR,,0.00,0.0,WeatherDisplay:10.37,2013-01-17 04:03:00,
2013-01-16 22:08:00,40.3,26.2,30.22,NW,315,0.0,0.0,57,0.00,CLR,,0.00,0.0,WeatherDisplay:10.37,2013-01-17 04:08:00,
2013-01-16 22:14:00,40.1,26.1,30.22,NW,315,0.0,0.0,57,0.00,CLR,,0.00,0.0,WeatherDisplay:10.37,2013-01-17 04:14:00,
2013-01-16 22:19:00,40.3,26.2,30.22,NW,315,0.0,0.0,57,0.00,CLR,,0.00,0.0,WeatherDisplay:10.37,2013-01-17 04:19:00,
2013-01-16 22:24:00,40.5,26.4,30.22,NW,315,0.0,0.0,57,0.00,CLR,,0.00,0.0,WeatherDisplay:10.37,2013-01-17 04:24:00,
2013-01-16 22:29:00,40.5,26.4,30.22,NW,315,0.0,0.0,57,0.00,CLR,,0.00,0.0,WeatherDisplay:10.37,2013-01-17 04:29:00,
2013-01-16 22:34:00,40.5,26.4,30.21,NW,315,0.0,0.0,57,0.00,CLR,,0.00,0.0,WeatherDisplay:10.37,2013-01-17 04:34:00,
2013-01-16 22:39:00,40.5,26.4,30.21,NW,315,0.0,0.0,57,0.00,CLR,,0.00,0.0,WeatherDisplay:10.37,2013-01-17 04:39:00,
2013-01-16 22:45:00,40.5,26.4,30.21,NW,315,0.0,0.0,57,0.00,CLR,,0.00,0.0,WeatherDisplay:10.37,2013-01-17 04:45:00,
2013-01-16 22:50:00,40.6,27.0,30.21,NW,315,0.0,0.0,58,0.00,CLR,,0.00,0.0,WeatherDisplay:10.37,2013-01-17 04:50:00,
2013-01-16 22:55:00,40.6,26.6,30.21,NW,315,0.0,0.0,57,0.00,CLR,,0.00,0.0,WeatherDisplay:10.37,2013-01-17 04:55:00,
2013-01-16 23:00:00,40.6,26.6,30.21,NW,315,0.0,0.0,57,0.00,CLR,,0.00,0.0,WeatherDisplay:10.37,2013-01-17 05:00:00,
2013-01-16 23:01:00,40.8,26.7,30.21,NW,315,0.0,0.0,57,0.00,CLR,,0.00,0.0,WeatherDisplay:10.37,2013-01-17 05:01:00,
2013-01-16 23:03:00,40.6,26.6,30.21,NW,315,0.0,0.0,57,0.00,CLR,,0.00,0.0,WeatherDisplay:10.37,2013-01-17 05:03:00,
2013-01-16 23:04:00,40.6,26.6,30.21,NW,315,0.0,0.0,57,0.00,CLR,,0.00,0.0,WeatherDisplay:10.37,2013-01-17 05:04:00,
2013-01-16 23:09:00,40.6,26.6,30.21,NW,315,0.0,0.0,57,0.00,CLR,,0.00,0.0,WeatherDisplay:10.37,2013-01-17 05:09:00,
2013-01-16 23:14:00,40.8,26.7,30.22,NW,315,0.0,0.0,57,0.00,CLR,,0.00,0.0,WeatherDisplay:10.37,2013-01-17 05:14:00,
2013-01-16 23:20:00,40.8,26.7,30.22,NW,315,0.0,0.0,57,0.00,CLR,,0.00,0.0,WeatherDisplay:10.37,2013-01-17 05:20:00,
2013-01-16 23:25:00,40.8,26.7,30.22,NW,315,0.0,0.0,57,0.00,CLR,,0.00,0.0,WeatherDisplay:10.37,2013-01-17 05:25:00,
2013-01-16 23:30:00,40.8,26.7,30.22,NW,315,0.0,0.0,57,0.00,CLR,,0.00,0.0,WeatherDisplay:10.37,2013-01-17 05:30:00,
2013-01-16 23:35:00,41.2,27.1,30.22,NW,315,0.0,0.0,57,0.00,CLR,,0.00,0.0,WeatherDisplay:10.37,2013-01-17 05:35:00,
2013-01-16 23:40:00,41.2,27.1,30.22,NW,315,0.0,0.0,57,0.00,CLR,,0.00,0.0,WeatherDisplay:10.37,2013-01-17 05:40:00,
2013-01-16 23:46:00,41.2,27.1,30.22,NW,315,0.0,0.0,57,0.00,CLR,,0.00,0.0,WeatherDisplay:10.37,2013-01-17 05:46:00,
2013-01-16 23:51:00,41.2,27.1,30.23,NW,315,0.0,0.0,57,0.00,CLR,,0.00,0.0,WeatherDisplay:10.37,2013-01-17 05:51:00,
2013-01-16 23:56:00,41.4,27.3,30.23,NW,315,0.0,0.0,57,0.00,CLR,,0.00,0.0,WeatherDisplay:10.37,2013-01-17 05:56:00,